Grover, North Carolina
Current Conditions -  °F | °C
As of 9:35 PM on Tuesday 21 Oct 2014 (Local Time) from KEHO Reporting Station
Clear Clear  
Wind Chill: 57°   Ceiling: Unl
Heat Index: 57°   Visibility: 10mi
Dew Point: 40°   Wind: 5mph
Humidity: 51%   Direction: 330°NNW
Pressure: 29.98"   Gusts: NA
Location:  35.17°N, 81.45°W
Report Text: KEHO 220135Z AUTO 33004KT 10SM CLR 14/04 A2998 RMK AO2 T01410042
Loading
Personal Weather Stations






























Interactive Weather Map
Tropical Storm Tracking
New forecast layout! Learn more

10-Day Weather Forecast

Advertisements
Track Severe Weather on mobile